createdAt,value
2018-09-24T00:00:00.459Z,8.60
2018-09-24T00:02:29.625Z,8.50
2018-09-24T00:04:58.838Z,8.50
2018-09-24T00:07:28.025Z,8.40
2018-09-24T00:09:57.248Z,8.40
2018-09-24T00:12:26.449Z,8.40
2018-09-24T00:14:55.672Z,8.40
2018-09-24T00:17:24.873Z,8.50
2018-09-24T00:19:54.133Z,8.50
2018-09-24T00:22:23.684Z,8.40
2018-09-24T00:24:52.892Z,8.40
2018-09-24T00:27:22.325Z,8.40
2018-09-24T00:29:51.534Z,8.40
2018-09-24T00:32:21.023Z,8.40
2018-09-24T00:34:50.241Z,8.50
2018-09-24T00:37:19.535Z,8.40
2018-09-24T00:39:48.763Z,8.40
2018-09-24T00:42:18.015Z,8.50
2018-09-24T00:44:47.238Z,8.50
2018-09-24T00:47:16.673Z,8.60
2018-09-24T00:49:45.892Z,8.60
2018-09-24T00:52:15.117Z,8.60
2018-09-24T00:54:44.317Z,8.60
2018-09-24T00:57:13.841Z,8.70
2018-09-24T00:59:43.045Z,8.70
2018-09-24T01:02:12.217Z,8.70
2018-09-24T01:04:41.428Z,8.60
2018-09-24T01:07:10.606Z,8.60
2018-09-24T01:09:39.854Z,8.60
2018-09-24T01:12:09.062Z,8.60
2018-09-24T01:14:38.329Z,8.60
2018-09-24T01:17:07.526Z,8.60
2018-09-24T01:19:36.767Z,8.60
2018-09-24T01:22:05.952Z,8.50
2018-09-24T01:24:35.149Z,8.60
2018-09-24T01:27:04.329Z,8.60
2018-09-24T01:29:33.520Z,8.60
2018-09-24T01:32:02.728Z,8.60
2018-09-24T01:34:31.919Z,8.60
2018-09-24T01:37:01.105Z,8.60
2018-09-24T01:39:30.308Z,8.60
2018-09-24T01:41:59.557Z,8.60
2018-09-24T01:44:28.753Z,8.60
2018-09-24T01:46:57.973Z,8.60
2018-09-24T01:49:27.171Z,8.60
2018-09-24T01:52:03.026Z,8.60
2018-09-24T01:54:32.216Z,8.60
2018-09-24T01:57:01.464Z,8.60
2018-09-24T01:59:30.665Z,8.70
2018-09-24T02:01:59.877Z,8.60
2018-09-24T02:04:29.075Z,8.70
2018-09-24T02:07:02.321Z,8.60
2018-09-24T02:09:32.125Z,8.60
2018-09-24T02:12:06.631Z,8.60
2018-09-24T02:14:36.361Z,8.60
2018-09-24T02:17:05.584Z,8.70
2018-09-24T02:19:34.915Z,8.60
2018-09-24T02:22:04.086Z,8.70
2018-09-24T02:24:33.333Z,8.70
2018-09-24T02:27:07.333Z,8.70
2018-09-24T02:29:37.148Z,8.70
2018-09-24T02:32:06.330Z,8.70
2018-09-24T02:34:35.777Z,8.70
2018-09-24T02:37:04.965Z,8.70
2018-09-24T02:39:34.215Z,8.80
2018-09-24T02:42:03.388Z,8.70
2018-09-24T02:44:32.629Z,8.80
2018-09-24T02:47:01.788Z,8.80
2018-09-24T02:49:31.010Z,8.80
2018-09-24T02:52:04.337Z,8.90
2018-09-24T02:54:35.183Z,8.90
2018-09-24T02:57:05.631Z,8.80
2018-09-24T02:59:34.868Z,8.80
2018-09-24T03:02:04.049Z,8.80
2018-09-24T03:04:33.261Z,8.80
2018-09-24T03:07:02.471Z,8.80
2018-09-24T03:09:31.896Z,8.80
2018-09-24T03:12:01.072Z,8.80
2018-09-24T03:14:30.280Z,8.80
2018-09-24T03:16:59.471Z,8.80
2018-09-24T03:19:28.661Z,8.80
2018-09-24T03:21:57.976Z,8.80
2018-09-24T03:24:27.168Z,8.80
2018-09-24T03:26:56.336Z,8.80
2018-09-24T03:29:26.708Z,8.80
2018-09-24T03:31:55.924Z,8.80
2018-09-24T03:34:25.281Z,8.90
2018-09-24T03:36:54.451Z,8.90
2018-09-24T03:39:23.682Z,8.90
2018-09-24T03:41:52.910Z,8.90
2018-09-24T03:44:22.138Z,8.80
2018-09-24T03:46:51.324Z,8.80
2018-09-24T03:49:20.504Z,8.80
2018-09-24T03:51:49.710Z,8.80
2018-09-24T03:54:18.879Z,8.80
2018-09-24T03:56:48.073Z,8.80
2018-09-24T03:59:17.257Z,8.80
2018-09-24T04:01:46.486Z,8.80
2018-09-24T04:04:21.022Z,8.80
2018-09-24T04:06:55.529Z,8.80
2018-09-24T04:09:29.881Z,8.80
2018-09-24T04:12:04.500Z,8.80
2018-09-24T04:14:39.106Z,8.80
2018-09-24T04:17:13.609Z,8.70
2018-09-24T04:19:48.155Z,8.80
2018-09-24T04:22:22.878Z,8.70
2018-09-24T04:24:57.393Z,8.80
2018-09-24T04:27:32.000Z,8.80
2018-09-24T04:30:06.437Z,8.80
2018-09-24T04:32:40.951Z,8.70
2018-09-24T04:35:15.619Z,8.70
2018-09-24T04:37:50.069Z,8.70
2018-09-24T04:40:24.549Z,8.70
2018-09-24T04:42:59.113Z,8.70
2018-09-24T04:45:33.708Z,8.70
2018-09-24T04:48:08.104Z,8.70
2018-09-24T04:50:42.711Z,8.80
2018-09-24T04:53:17.235Z,8.80
2018-09-24T04:55:51.966Z,8.80
2018-09-24T04:58:26.393Z,8.90
2018-09-24T05:01:00.981Z,8.80
2018-09-24T05:03:35.520Z,8.80
2018-09-24T05:06:10.000Z,8.80
2018-09-24T05:08:44.452Z,8.90
2018-09-24T05:11:18.989Z,8.90
2018-09-24T05:13:53.437Z,8.80
2018-09-24T05:16:28.063Z,8.80
2018-09-24T05:19:02.567Z,8.80
2018-09-24T05:21:37.053Z,8.80
2018-09-24T05:24:11.648Z,8.80
2018-09-24T05:26:46.130Z,8.80
2018-09-24T05:29:21.682Z,8.80
2018-09-24T05:31:56.868Z,8.80
2018-09-24T05:34:38.244Z,8.80
2018-09-24T05:37:12.642Z,8.80
2018-09-24T05:39:47.166Z,8.80
2018-09-24T05:42:21.582Z,8.80
2018-09-24T05:44:56.177Z,8.80
2018-09-24T05:47:30.740Z,8.90
2018-09-24T05:50:05.289Z,8.90
2018-09-24T05:52:39.805Z,8.90
2018-09-24T05:55:14.288Z,8.80
2018-09-24T05:57:48.766Z,8.80
2018-09-24T06:00:23.173Z,8.80
2018-09-24T06:02:57.725Z,8.80
2018-09-24T06:05:32.189Z,8.80
2018-09-24T06:08:06.829Z,8.80
2018-09-24T06:10:41.446Z,8.80
2018-09-24T06:13:15.873Z,8.80
2018-09-24T06:15:50.325Z,8.80
2018-09-24T06:18:24.772Z,8.70
2018-09-24T06:20:59.160Z,8.70
2018-09-24T06:23:33.601Z,8.70
2018-09-24T06:26:07.937Z,8.80
2018-09-24T06:28:42.331Z,8.80
2018-09-24T06:31:16.926Z,8.80
2018-09-24T06:33:51.437Z,8.80
2018-09-24T06:36:25.841Z,8.80
2018-09-24T06:39:00.228Z,8.80
2018-09-24T06:41:34.635Z,8.90
2018-09-24T06:44:09.033Z,8.90
2018-09-24T06:46:43.461Z,8.90
2018-09-24T06:49:18.000Z,8.90
2018-09-24T06:51:52.620Z,8.90
2018-09-24T06:54:27.157Z,8.90
2018-09-24T06:57:01.702Z,8.90
2018-09-24T06:59:36.280Z,8.90
2018-09-24T07:02:10.837Z,9.00
2018-09-24T07:04:45.430Z,9.00
2018-09-24T07:07:19.884Z,9.10
2018-09-24T07:09:54.456Z,9.00
2018-09-24T07:12:29.050Z,9.10
2018-09-24T07:15:03.650Z,9.10
2018-09-24T07:17:38.153Z,9.10
2018-09-24T07:20:12.774Z,9.30
2018-09-24T07:22:47.177Z,9.30
2018-09-24T07:25:21.657Z,9.40
2018-09-24T07:27:56.251Z,9.50
2018-09-24T07:30:30.756Z,9.50
2018-09-24T07:33:05.142Z,9.50
2018-09-24T07:35:39.716Z,9.40
2018-09-24T07:38:14.167Z,9.50
2018-09-24T07:40:48.750Z,9.50
2018-09-24T07:43:23.268Z,9.40
2018-09-24T07:45:57.797Z,9.40
2018-09-24T07:48:32.324Z,9.40
2018-09-24T07:51:06.914Z,9.50
2018-09-24T07:53:41.346Z,9.50
2018-09-24T07:56:15.914Z,9.40
2018-09-24T07:58:50.401Z,9.40
2018-09-24T08:01:25.001Z,9.50
2018-09-24T08:03:59.304Z,9.60
2018-09-24T08:06:33.953Z,9.70
2018-09-24T08:09:08.517Z,9.80
2018-09-24T08:11:43.018Z,9.80
2018-09-24T08:14:17.657Z,9.80
2018-09-24T08:16:52.180Z,9.80
2018-09-24T08:19:26.720Z,9.90
2018-09-24T08:22:01.327Z,10.00
2018-09-24T08:24:35.953Z,10.10
2018-09-24T08:27:10.526Z,10.20
2018-09-24T08:29:45.093Z,10.30
2018-09-24T08:32:19.505Z,10.40
2018-09-24T08:34:54.139Z,10.40
2018-09-24T08:37:28.612Z,10.40
2018-09-24T08:40:03.198Z,10.40
2018-09-24T08:42:37.794Z,10.50
2018-09-24T08:45:12.368Z,10.70
2018-09-24T08:47:46.920Z,10.70
2018-09-24T08:50:21.336Z,10.80
2018-09-24T08:52:55.950Z,10.80
2018-09-24T08:55:30.533Z,10.70
2018-09-24T08:58:05.171Z,10.60
2018-09-24T09:00:39.765Z,10.60
2018-09-24T09:03:14.162Z,10.60
2018-09-24T09:05:48.801Z,10.70
2018-09-24T09:08:23.378Z,10.90
2018-09-24T09:10:57.888Z,10.80
2018-09-24T09:13:32.533Z,10.90
2018-09-24T09:16:07.104Z,11.10
2018-09-24T09:18:41.649Z,11.20
2018-09-24T09:21:16.141Z,11.20
2018-09-24T09:23:50.684Z,11.10
2018-09-24T09:26:25.292Z,11.10
2018-09-24T09:28:59.716Z,11.10
2018-09-24T09:31:34.268Z,11.20
2018-09-24T09:34:08.733Z,11.30
2018-09-24T09:36:43.249Z,11.30
2018-09-24T09:39:17.689Z,11.30
2018-09-24T09:41:52.305Z,11.20
2018-09-24T09:44:26.776Z,11.20
2018-09-24T09:47:01.365Z,11.20
2018-09-24T09:49:35.819Z,11.20
2018-09-24T09:52:10.269Z,11.20
2018-09-24T09:54:44.957Z,11.30
2018-09-24T09:57:19.544Z,11.50
2018-09-24T09:59:54.037Z,11.50
2018-09-24T10:02:28.476Z,11.50
2018-09-24T10:05:03.018Z,11.60
2018-09-24T10:07:37.474Z,11.70
2018-09-24T10:10:12.311Z,11.70
2018-09-24T10:12:46.833Z,11.80
2018-09-24T10:15:21.449Z,11.50
2018-09-24T10:17:56.045Z,11.20
2018-09-24T10:20:30.544Z,11.20
2018-09-24T10:23:04.953Z,10.90
2018-09-24T10:25:39.595Z,10.50
2018-09-24T10:28:14.222Z,10.10
2018-09-24T10:30:48.760Z,9.90
2018-09-24T10:33:23.155Z,9.80
2018-09-24T10:35:57.665Z,9.90
2018-09-24T10:38:32.184Z,10.10
2018-09-24T10:41:06.812Z,10.30
2018-09-24T10:43:41.355Z,10.60
2018-09-24T10:46:15.869Z,10.70
2018-09-24T10:48:50.482Z,10.70
2018-09-24T10:51:25.098Z,10.80
2018-09-24T10:53:59.440Z,11.00
2018-09-24T10:56:34.004Z,11.10
2018-09-24T10:59:08.405Z,11.20
2018-09-24T11:01:43.773Z,11.40
2018-09-24T11:04:18.620Z,11.60
2018-09-24T11:06:53.268Z,11.80
2018-09-24T11:09:27.800Z,11.90
2018-09-24T11:12:02.406Z,11.90
2018-09-24T11:14:36.841Z,11.70
2018-09-24T11:17:11.445Z,11.50
2018-09-24T11:19:46.024Z,11.60
2018-09-24T11:22:20.570Z,11.60
2018-09-24T11:24:55.145Z,11.40
2018-09-24T11:27:29.553Z,11.30
2018-09-24T11:30:04.024Z,11.40
2018-09-24T11:32:38.553Z,11.60
2018-09-24T11:35:13.018Z,11.60
2018-09-24T11:37:47.553Z,11.40
2018-09-24T11:40:22.067Z,11.60
2018-09-24T11:42:56.719Z,11.80
2018-09-24T11:45:31.355Z,12.10
2018-09-24T11:48:05.944Z,12.40
2018-09-24T11:50:40.363Z,12.50
2018-09-24T11:53:15.728Z,12.60
2018-09-24T11:55:50.296Z,12.50
2018-09-24T11:58:24.728Z,12.70
2018-09-24T12:00:59.385Z,12.60
2018-09-24T12:03:33.886Z,12.70
2018-09-24T12:06:08.505Z,12.70
2018-09-24T12:08:43.057Z,12.70
2018-09-24T12:11:17.665Z,12.60
2018-09-24T12:13:52.132Z,12.50
2018-09-24T12:16:26.716Z,12.50
2018-09-24T12:19:01.378Z,12.30
2018-09-24T12:21:35.954Z,11.70
2018-09-24T12:24:10.437Z,11.70
2018-09-24T12:26:45.004Z,11.80
2018-09-24T12:29:19.435Z,11.90
2018-09-24T12:31:53.964Z,12.10
2018-09-24T12:34:28.535Z,12.30
2018-09-24T12:37:03.077Z,12.70
2018-09-24T12:39:37.524Z,13.00
2018-09-24T12:42:12.126Z,13.20
2018-09-24T12:44:46.642Z,13.40
2018-09-24T12:47:21.161Z,13.50
2018-09-24T12:49:55.633Z,13.40
2018-09-24T12:52:30.231Z,13.50
2018-09-24T12:55:04.981Z,13.40
2018-09-24T12:57:39.626Z,13.30
2018-09-24T13:00:14.090Z,13.30
2018-09-24T13:02:48.669Z,13.20
2018-09-24T13:05:23.265Z,13.10
2018-09-24T13:07:57.852Z,13.00
2018-09-24T13:10:32.415Z,12.80
2018-09-24T13:13:06.888Z,12.60
2018-09-24T13:15:41.530Z,12.60
2018-09-24T13:18:16.080Z,12.60
2018-09-24T13:20:50.608Z,12.60
2018-09-24T13:23:25.197Z,12.60
2018-09-24T13:25:59.850Z,12.50
2018-09-24T13:28:34.491Z,12.10
2018-09-24T13:31:08.882Z,12.20
2018-09-24T13:33:43.528Z,12.10
2018-09-24T13:36:18.148Z,12.00
2018-09-24T13:38:52.748Z,12.10
2018-09-24T13:41:27.233Z,12.30
2018-09-24T13:44:01.789Z,12.50
2018-09-24T13:46:37.165Z,12.50
2018-09-24T13:49:31.852Z,12.40
2018-09-24T13:52:06.369Z,12.30
2018-09-24T13:54:40.818Z,12.20
2018-09-24T13:57:15.389Z,12.10
2018-09-24T13:59:49.897Z,12.10
2018-09-24T14:02:24.453Z,12.20
2018-09-24T14:04:59.002Z,12.30
2018-09-24T14:07:33.568Z,12.60
2018-09-24T14:10:07.977Z,12.60
2018-09-24T14:12:42.430Z,12.80
2018-09-24T14:15:16.836Z,12.90
2018-09-24T14:17:51.380Z,12.90
2018-09-24T14:20:25.816Z,12.90
2018-09-24T14:23:00.413Z,12.90
2018-09-24T14:25:34.822Z,12.90
2018-09-24T14:28:09.348Z,12.90
2018-09-24T14:30:43.869Z,12.90
2018-09-24T14:33:18.649Z,12.80
2018-09-24T14:35:53.281Z,12.90
2018-09-24T14:38:27.844Z,13.00
2018-09-24T14:41:02.321Z,13.20
2018-09-24T14:43:36.901Z,13.00
2018-09-24T14:46:11.534Z,13.20
2018-09-24T14:48:46.053Z,13.30
2018-09-24T14:51:20.485Z,13.40
2018-09-24T14:53:55.031Z,13.50
2018-09-24T14:56:29.613Z,13.70
2018-09-24T14:59:04.238Z,13.70
2018-09-24T15:01:38.776Z,13.50
2018-09-24T15:04:13.374Z,13.30
2018-09-24T15:06:47.796Z,13.10
2018-09-24T15:09:22.379Z,13.00
2018-09-24T15:11:56.881Z,12.90
2018-09-24T15:14:31.565Z,12.90
2018-09-24T15:17:05.986Z,12.70
2018-09-24T15:19:40.614Z,12.60
2018-09-24T15:22:15.240Z,12.50
2018-09-24T15:24:49.841Z,12.40
2018-09-24T15:27:24.372Z,12.10
2018-09-24T15:29:58.935Z,11.90
2018-09-24T15:32:33.444Z,11.50
2018-09-24T15:35:07.944Z,11.30
2018-09-24T15:37:42.589Z,11.20
2018-09-24T15:40:17.224Z,11.10
2018-09-24T15:42:51.830Z,11.10
2018-09-24T15:45:26.750Z,11.00
2018-09-24T15:48:01.237Z,11.00
2018-09-24T15:50:35.663Z,11.00
2018-09-24T15:53:10.106Z,11.00
2018-09-24T15:55:44.578Z,11.00
2018-09-24T15:58:19.141Z,11.00
2018-09-24T16:00:53.562Z,11.10
2018-09-24T16:03:28.200Z,11.10
2018-09-24T16:06:02.846Z,11.10
2018-09-24T16:08:37.428Z,11.10
2018-09-24T16:11:11.965Z,11.10
2018-09-24T16:13:46.391Z,11.10
2018-09-24T16:16:20.896Z,11.10
2018-09-24T16:18:55.301Z,10.90
2018-09-24T16:21:29.857Z,10.90
2018-09-24T16:24:04.582Z,10.90
2018-09-24T16:26:39.132Z,10.90
2018-09-24T16:29:13.718Z,10.90
2018-09-24T16:31:48.145Z,10.80
2018-09-24T16:34:22.708Z,10.80
2018-09-24T16:36:57.329Z,10.80
2018-09-24T16:39:31.821Z,10.40
2018-09-24T16:42:06.347Z,10.20
2018-09-24T16:44:40.972Z,10.20
2018-09-24T16:47:15.591Z,10.20
2018-09-24T16:49:50.151Z,10.10
2018-09-24T16:52:24.713Z,9.80
2018-09-24T16:54:59.255Z,9.70
2018-09-24T16:57:33.850Z,9.70
2018-09-24T17:00:08.392Z,9.50
2018-09-24T17:02:43.053Z,9.30
2018-09-24T17:05:17.453Z,9.30
2018-09-24T17:07:51.876Z,9.30
2018-09-24T17:10:26.497Z,9.30
2018-09-24T17:13:01.049Z,9.30
2018-09-24T17:15:35.532Z,9.30
2018-09-24T17:18:09.898Z,9.20
2018-09-24T17:20:44.440Z,9.10
2018-09-24T17:23:19.105Z,9.10
2018-09-24T17:25:53.663Z,9.10
2018-09-24T17:28:28.165Z,9.10
2018-09-24T17:31:02.654Z,9.10
2018-09-24T17:33:37.221Z,9.00
2018-09-24T17:36:11.621Z,9.10
2018-09-24T17:38:46.176Z,9.00
2018-09-24T17:41:20.632Z,9.10
2018-09-24T17:43:55.188Z,9.00
2018-09-24T17:46:29.742Z,9.10
2018-09-24T17:49:04.224Z,9.10
2018-09-24T17:51:38.844Z,9.00
2018-09-24T17:54:13.385Z,9.00
2018-09-24T17:56:47.912Z,9.00
2018-09-24T17:59:22.433Z,9.00
2018-09-24T18:01:56.936Z,8.90
2018-09-24T18:04:31.474Z,8.90
2018-09-24T18:07:05.863Z,8.90
2018-09-24T18:09:40.537Z,8.90
2018-09-24T18:12:15.128Z,8.80
2018-09-24T18:14:49.557Z,8.70
2018-09-24T18:17:23.957Z,8.70
2018-09-24T18:19:58.479Z,8.70
2018-09-24T18:22:32.889Z,8.80
2018-09-24T18:25:07.414Z,8.90
2018-09-24T18:27:41.821Z,8.90
2018-09-24T18:30:16.291Z,8.90
2018-09-24T18:32:50.806Z,8.90
2018-09-24T18:35:25.354Z,9.00
2018-09-24T18:37:59.756Z,9.00
2018-09-24T18:40:34.239Z,9.10
2018-09-24T18:43:08.740Z,9.20
2018-09-24T18:45:43.335Z,9.10
2018-09-24T18:48:18.021Z,9.10
2018-09-24T18:50:52.547Z,9.10
2018-09-24T18:53:27.053Z,9.10
2018-09-24T18:56:01.467Z,9.10
2018-09-24T18:58:36.155Z,9.00
2018-09-24T19:01:10.761Z,9.00
2018-09-24T19:03:45.440Z,9.10
2018-09-24T19:06:19.909Z,9.10
2018-09-24T19:08:54.349Z,9.10
2018-09-24T19:11:28.993Z,9.20
2018-09-24T19:14:03.529Z,9.20
2018-09-24T19:16:38.174Z,9.20
2018-09-24T19:19:12.686Z,9.20
2018-09-24T19:21:47.395Z,9.20
2018-09-24T19:24:21.943Z,9.10
2018-09-24T19:26:56.413Z,9.10
2018-09-24T19:29:30.990Z,9.10
2018-09-24T19:32:05.436Z,9.10
2018-09-24T19:34:40.109Z,9.10
2018-09-24T19:37:14.748Z,9.10
2018-09-24T19:39:49.270Z,9.10
2018-09-24T19:42:23.646Z,9.00
2018-09-24T19:44:58.046Z,9.00
2018-09-24T19:47:32.661Z,8.90
2018-09-24T19:50:07.268Z,9.00
2018-09-24T19:52:41.805Z,9.00
2018-09-24T19:55:16.192Z,8.90
2018-09-24T19:57:50.843Z,9.00
2018-09-24T20:00:25.365Z,8.90
2018-09-24T20:02:59.803Z,8.90
2018-09-24T20:05:34.329Z,8.90
2018-09-24T20:08:08.993Z,8.90
2018-09-24T20:10:43.548Z,8.90
2018-09-24T20:13:18.064Z,8.80
2018-09-24T20:15:52.551Z,8.80
2018-09-24T20:18:27.057Z,8.80
2018-09-24T20:21:01.629Z,8.80
2018-09-24T20:23:36.102Z,8.80
2018-09-24T20:26:10.597Z,8.80
2018-09-24T20:28:45.098Z,8.80
2018-09-24T20:31:19.736Z,8.80
2018-09-24T20:33:54.267Z,8.70
2018-09-24T20:36:28.720Z,8.70
2018-09-24T20:39:03.164Z,8.70
2018-09-24T20:41:37.688Z,8.60
2018-09-24T20:44:12.133Z,8.60
2018-09-24T20:46:46.670Z,8.60
2018-09-24T20:49:21.162Z,8.60
2018-09-24T20:51:55.792Z,8.60
2018-09-24T20:54:30.453Z,8.60
2018-09-24T20:57:05.005Z,8.60
2018-09-24T20:59:39.490Z,8.50
2018-09-24T21:02:13.946Z,8.50
2018-09-24T21:04:48.560Z,8.50
2018-09-24T21:07:23.116Z,8.50
2018-09-24T21:09:57.585Z,8.50
2018-09-24T21:12:32.132Z,8.50
2018-09-24T21:15:06.580Z,8.50
2018-09-24T21:17:41.150Z,8.40
2018-09-24T21:20:15.611Z,8.30
2018-09-24T21:22:50.163Z,8.40
2018-09-24T21:25:24.809Z,8.30
2018-09-24T21:27:59.276Z,8.30
2018-09-24T21:30:34.340Z,8.30
2018-09-24T21:33:08.956Z,8.30
2018-09-24T21:35:43.465Z,8.20
2018-09-24T21:38:18.018Z,8.30
2018-09-24T21:40:52.449Z,8.20
2018-09-24T21:43:26.957Z,8.10
2018-09-24T21:46:01.578Z,8.10
2018-09-24T21:48:35.989Z,8.10
2018-09-24T21:51:10.613Z,8.10
2018-09-24T21:53:45.145Z,8.10
2018-09-24T21:56:19.787Z,8.10
2018-09-24T21:58:54.329Z,8.10
2018-09-24T22:01:28.925Z,8.20
2018-09-24T22:04:03.409Z,8.20
2018-09-24T22:06:38.061Z,8.10
2018-09-24T22:09:14.373Z,8.10
2018-09-24T22:11:48.939Z,8.00
2018-09-24T22:14:30.392Z,8.00
2018-09-24T22:17:04.937Z,7.90
2018-09-24T22:19:39.372Z,8.00
2018-09-24T22:22:13.757Z,8.00
2018-09-24T22:24:48.237Z,8.00
2018-09-24T22:27:22.826Z,7.90
2018-09-24T22:29:57.271Z,7.80
2018-09-24T22:32:31.859Z,7.80
2018-09-24T22:35:06.306Z,7.80
2018-09-24T22:37:40.837Z,7.80
2018-09-24T22:40:15.449Z,7.70
2018-09-24T22:42:49.897Z,7.70
2018-09-24T22:45:24.516Z,7.60
2018-09-24T22:47:59.101Z,7.50
2018-09-24T22:50:33.533Z,7.40
2018-09-24T22:53:08.107Z,7.50
2018-09-24T22:55:42.646Z,7.40
2018-09-24T22:58:17.105Z,7.40
2018-09-24T23:00:51.509Z,7.30
2018-09-24T23:03:26.051Z,7.30
2018-09-24T23:06:00.556Z,7.20
2018-09-24T23:08:35.173Z,7.20
2018-09-24T23:11:09.801Z,7.30
2018-09-24T23:13:44.249Z,7.30
2018-09-24T23:16:18.726Z,7.30
2018-09-24T23:18:53.302Z,7.30
2018-09-24T23:21:27.885Z,7.40
2018-09-24T23:24:02.322Z,7.30
2018-09-24T23:26:36.937Z,7.30
2018-09-24T23:29:11.473Z,7.30
2018-09-24T23:31:46.105Z,7.30
2018-09-24T23:34:20.610Z,7.30
2018-09-24T23:36:55.093Z,7.40
2018-09-24T23:39:29.587Z,7.40
2018-09-24T23:42:04.057Z,7.50
2018-09-24T23:44:38.545Z,7.40
2018-09-24T23:47:13.113Z,7.40
2018-09-24T23:49:47.798Z,7.50
2018-09-24T23:52:22.364Z,7.40
2018-09-24T23:54:56.853Z,7.40
2018-09-24T23:57:31.458Z,7.40
